Погода Лагоса Сантана неделю

Минас-Жерайс, Бразилия

24 - 30 июля
  • 24июля
    Сегодня
    +13°
    +26°
    Небольшая облачность
    ВремяПогодаТемператураВлажностьДавлениеВетер, м/сВероятность осадков
    00:00Ясно и безоблачно+16°C63 %690 мм2.1 м/с5 %
    03:00Ясно и безоблачно+15°C71 %689 мм2.3 м/с5 %
    06:00Ясно и безоблачно+14°C80 %690 мм3.8 м/с5 %
    09:00Практически безоблачно+18°C65 %692 мм3.2 м/с4 %
    12:00Небольшая облачность+24°C40 %692 мм2.8 м/с5 %
    15:00Небольшая облачность+25°C33 %690 мм3.1 м/с5 %
    18:00Облачно с прояснениями+22°C46 %690 мм2.9 м/с5 %
    21:00Ясно и безоблачно+19°C61 %691 мм3.7 м/с5 %
  • 25июля
    Четверг
    +13°
    +26°
    Ясно и безоблачно
    ВремяПогодаТемператураВлажностьДавлениеВетер, м/сВероятность осадков
    00:00Ясно и безоблачно+16°C70 %690 мм2.0 м/с5 %
    03:00Небольшая облачность+14°C77 %689 мм1.9 м/с5 %
    06:00Небольшая облачность+14°C81 %689 мм3.6 м/с5 %
    09:00Ясно и безоблачно+17°C57 %691 мм2.6 м/с5 %
    12:00Небольшая облачность+24°C33 %691 мм1.4 м/с5 %
    15:00Ясно и безоблачно+26°C29 %689 мм1.6 м/с5 %
    18:00Ясно и безоблачно+22°C43 %688 мм2.5 м/с5 %
    21:00Ясно и безоблачно+19°C59 %689 мм3.4 м/с5 %
  • 26июля
    Пятница
    +14°
    +27°
    Практически безоблачно
    ВремяПогодаТемператураВлажностьДавлениеВетер, м/сВероятность осадков
    00:00Ясно и безоблачно+17°C66 %688 мм1.9 м/с5 %
    03:00Ясно и безоблачно+15°C79 %687 мм2.1 м/с5 %
    06:00Ясно и безоблачно+14°C83 %687 мм3.3 м/с5 %
    09:00Ясно и безоблачно+19°C47 %689 мм2.0 м/с5 %
    12:00Ясно и безоблачно+25°C29 %690 мм1.7 м/с5 %
    15:00Практически безоблачно+26°C26 %688 мм2.6 м/с5 %
    18:00Ясно и безоблачно+23°C37 %688 мм2.3 м/с5 %
    21:00Ясно и безоблачно+20°C49 %688 мм3.3 м/с5 %
  • 27июля
    Суббота
    +15°
    +28°
    Ясно и безоблачно
    ВремяПогодаТемператураВлажностьДавлениеВетер, м/сВероятность осадков
    00:00Облачно с прояснениями+17°C57 %688 мм2.5 м/с5 %
    03:00Облачно с прояснениями+16°C67 %687 мм2.1 м/с5 %
    06:00Небольшая облачность+15°C66 %687 мм3.3 м/с5 %
    09:00Небольшая облачность+19°C43 %690 мм2.5 м/с5 %
    12:00Облачно с прояснениями+26°C33 %690 мм2.2 м/с5 %
    15:00Ясно и безоблачно+27°C30 %689 мм2.7 м/с5 %
    18:00Практически безоблачно+24°C38 %689 мм1.9 м/с5 %
    21:00Ясно и безоблачно+20°C59 %689 мм3.3 м/с5 %
Мы используем cookies
Соглашаюсь